createdAt,value
2023-03-17T00:02:25.280Z,22.33
2023-03-17T00:05:50.340Z,26.02
2023-03-17T00:09:15.756Z,15.80
2023-03-17T00:12:40.379Z,22.23
2023-03-17T00:16:06.864Z,22.67
2023-03-17T00:19:32.750Z,22.90
2023-03-17T00:22:58.029Z,23.95
2023-03-17T00:26:22.912Z,22.35
2023-03-17T00:29:50.612Z,20.07
2023-03-17T00:33:17.325Z,18.52
2023-03-17T00:36:41.215Z,17.50
2023-03-17T00:40:08.546Z,20.40
2023-03-17T00:43:33.106Z,18.92
2023-03-17T00:46:58.189Z,21.83
2023-03-17T00:50:27.062Z,21.12
2023-03-17T00:53:52.198Z,21.02
2023-03-17T00:57:16.994Z,20.83
2023-03-17T01:00:41.617Z,20.45
2023-03-17T01:04:05.988Z,18.33
2023-03-17T01:07:32.600Z,18.85
2023-03-17T01:10:56.890Z,22.10
2023-03-17T01:14:21.212Z,21.50
2023-03-17T01:17:45.298Z,24.30
2023-03-17T01:21:09.836Z,26.50
2023-03-17T01:24:35.821Z,27.23
2023-03-17T01:28:00.718Z,28.00
2023-03-17T01:31:26.911Z,30.08
2023-03-17T01:34:51.556Z,26.17
2023-03-17T01:38:15.852Z,28.38
2023-03-17T01:41:41.756Z,29.25
2023-03-17T01:45:07.817Z,38.85
2023-03-17T01:48:32.365Z,42.15
2023-03-17T01:52:03.754Z,39.53
2023-03-17T01:55:28.627Z,28.65
2023-03-17T01:58:54.462Z,29.77
2023-03-17T02:02:24.911Z,28.65
2023-03-17T02:05:50.084Z,23.98
2023-03-17T02:09:14.045Z,20.90
2023-03-17T02:12:40.410Z,22.40
2023-03-17T02:16:08.051Z,22.67
2023-03-17T02:19:32.869Z,31.10
2023-03-17T02:22:58.127Z,19.80
2023-03-17T02:26:22.768Z,19.50
2023-03-17T02:29:48.132Z,19.75
2023-03-17T02:33:13.970Z,24.40
2023-03-17T02:36:39.356Z,22.05
2023-03-17T02:40:07.788Z,24.33
2023-03-17T02:43:31.770Z,18.55
2023-03-17T02:46:57.367Z,20.77
2023-03-17T02:50:23.305Z,20.25
2023-03-17T02:53:47.903Z,20.77
2023-03-17T02:57:13.471Z,19.73
2023-03-17T03:00:38.123Z,20.25
2023-03-17T03:04:02.719Z,19.95
2023-03-17T03:07:27.421Z,21.45
2023-03-17T03:10:51.764Z,26.37
2023-03-17T03:14:18.183Z,21.93
2023-03-17T03:17:42.948Z,27.15
2023-03-17T03:21:08.370Z,22.67
2023-03-17T03:24:32.761Z,23.20
2023-03-17T03:27:57.416Z,22.30
2023-03-17T03:31:23.220Z,21.63
2023-03-17T03:34:48.113Z,22.75
2023-03-17T03:38:12.468Z,28.60
2023-03-17T03:41:37.514Z,26.52
2023-03-17T03:45:01.800Z,28.38
2023-03-17T03:48:28.218Z,33.80
2023-03-17T03:51:52.439Z,31.15
2023-03-17T03:55:18.183Z,26.25
2023-03-17T03:58:43.180Z,20.02
2023-03-17T04:02:09.723Z,21.15
2023-03-17T04:05:35.705Z,24.60
2023-03-17T04:08:59.710Z,23.50
2023-03-17T04:12:24.328Z,26.00
2023-03-17T04:15:48.892Z,33.40
2023-03-17T04:19:13.239Z,28.20
2023-03-17T04:22:38.601Z,30.00
2023-03-17T04:26:04.673Z,30.40
2023-03-17T04:29:29.584Z,33.50
2023-03-17T04:32:54.691Z,33.42
2023-03-17T04:36:21.277Z,30.90
2023-03-17T04:39:47.741Z,32.43
2023-03-17T04:43:12.100Z,26.58
2023-03-17T04:46:37.171Z,27.73
2023-03-17T04:50:02.048Z,25.00
2023-03-17T04:53:27.608Z,19.77
2023-03-17T04:56:53.907Z,21.27
2023-03-17T05:00:19.178Z,17.40
2023-03-17T05:03:43.016Z,16.50
2023-03-17T05:07:07.198Z,18.67
2023-03-17T05:10:31.588Z,16.12
2023-03-17T05:13:57.868Z,22.07
2023-03-17T05:17:21.193Z,19.70
2023-03-17T05:20:48.282Z,15.05
2023-03-17T05:24:11.751Z,25.35
2023-03-17T05:27:35.945Z,23.50
2023-03-17T05:31:01.554Z,19.00
2023-03-17T05:34:26.336Z,17.87
2023-03-17T05:37:50.147Z,20.37
2023-03-17T05:41:14.844Z,22.62
2023-03-17T05:44:38.837Z,20.10
2023-03-17T05:48:05.180Z,22.42
2023-03-17T05:51:29.630Z,28.23
2023-03-17T05:54:54.946Z,21.25
2023-03-17T05:58:19.602Z,23.20
2023-03-17T06:01:44.688Z,25.48
2023-03-17T06:05:12.087Z,27.33
2023-03-17T06:08:36.552Z,23.62
2023-03-17T06:12:02.045Z,17.73
2023-03-17T06:15:27.518Z,18.23
2023-03-17T06:18:52.581Z,19.27
2023-03-17T06:22:19.063Z,20.00
2023-03-17T12:28:28.091Z,7.93
2023-03-17T12:31:58.521Z,6.43
2023-03-17T12:35:29.976Z,7.18
2023-03-17T12:38:58.665Z,8.13
2023-03-17T12:42:37.153Z,8.05
2023-03-17T12:46:16.024Z,6.20
2023-03-17T12:50:05.966Z,6.90
2023-03-17T12:53:31.181Z,9.35
2023-03-17T12:56:54.570Z,8.30
2023-03-17T13:00:25.655Z,8.85
2023-03-17T13:04:03.456Z,9.20
2023-03-17T13:07:31.450Z,6.60
2023-03-17T13:11:02.305Z,5.93
2023-03-17T13:14:27.783Z,7.12
2023-03-17T13:17:52.791Z,6.07
2023-03-17T13:21:21.985Z,10.70
2023-03-17T13:24:49.863Z,6.50
2023-03-17T13:28:27.586Z,8.00
2023-03-17T13:31:52.774Z,9.02
2023-03-17T13:35:20.529Z,6.82
2023-03-17T13:39:18.880Z,8.90
2023-03-17T13:42:52.567Z,9.02
2023-03-17T13:46:23.684Z,8.32
2023-03-17T13:49:51.675Z,8.60
2023-03-17T13:53:17.224Z,7.40
2023-03-17T13:56:55.771Z,9.27
2023-03-17T14:00:25.266Z,8.27
2023-03-17T14:03:54.462Z,6.35
2023-03-17T14:07:20.815Z,7.45
2023-03-17T14:10:47.099Z,8.02
2023-03-17T14:14:32.033Z,6.17
2023-03-17T14:17:59.934Z,8.27
2023-03-17T14:21:25.841Z,6.57
2023-03-17T14:24:55.709Z,6.62
2023-03-17T14:28:29.210Z,7.78
2023-03-17T14:32:04.839Z,6.87
2023-03-17T14:35:33.783Z,8.80
2023-03-17T14:39:00.316Z,7.03
2023-03-17T14:42:29.209Z,9.35
2023-03-17T14:45:55.400Z,8.30
2023-03-17T14:49:22.825Z,14.20
2023-03-17T14:52:49.018Z,8.07
2023-03-17T14:56:14.866Z,10.75
2023-03-17T14:59:40.881Z,5.60
2023-03-17T15:03:07.218Z,10.52
2023-03-17T15:06:38.042Z,8.13
2023-03-17T15:10:04.207Z,7.87
2023-03-17T15:13:29.000Z,7.22
2023-03-17T15:16:54.965Z,7.65
2023-03-17T15:20:21.078Z,10.15
2023-03-17T15:23:49.401Z,7.87
2023-03-17T15:27:16.964Z,9.68
2023-03-17T15:30:47.632Z,6.37
2023-03-17T15:34:15.432Z,9.55
2023-03-17T15:37:40.653Z,9.38
2023-03-17T15:41:08.884Z,9.43
2023-03-17T15:44:34.400Z,10.35
2023-03-17T15:47:59.417Z,7.15
2023-03-17T15:51:23.489Z,9.10
2023-03-17T15:54:47.783Z,8.57
2023-03-17T15:58:12.288Z,9.03
2023-03-17T16:01:35.690Z,8.20
2023-03-17T16:04:59.630Z,12.20
2023-03-17T16:08:23.400Z,7.37
2023-03-17T16:11:52.640Z,9.27
2023-03-17T16:15:22.895Z,10.93
2023-03-17T16:18:48.095Z,12.23
2023-03-17T16:22:16.789Z,12.65
2023-03-17T16:25:42.203Z,9.43
2023-03-17T16:29:07.990Z,8.23
2023-03-17T16:32:35.728Z,8.53
2023-03-17T16:36:00.955Z,9.80
2023-03-17T16:39:26.636Z,7.22
2023-03-17T16:46:45.578Z,9.23
2023-03-17T16:50:16.547Z,8.43
2023-03-17T16:53:41.163Z,7.35
2023-03-17T16:57:07.728Z,8.02
2023-03-17T17:00:33.535Z,8.88
2023-03-17T17:03:58.359Z,6.97
2023-03-17T17:07:25.071Z,9.50
2023-03-17T17:10:50.445Z,8.35
2023-03-17T17:14:14.996Z,8.95
2023-03-17T17:17:40.827Z,8.40
2023-03-17T17:21:06.669Z,10.13
2023-03-17T17:24:34.902Z,8.63
2023-03-17T17:28:02.630Z,7.50
2023-03-17T17:31:27.549Z,9.30
2023-03-17T17:34:54.395Z,10.10
2023-03-17T17:38:22.277Z,8.52
2023-03-17T17:41:50.000Z,12.13
2023-03-17T17:45:19.065Z,11.38
2023-03-17T17:48:45.622Z,9.30
2023-03-17T17:52:12.566Z,11.12
2023-03-17T17:55:48.866Z,12.45
2023-03-17T17:59:16.458Z,9.20
2023-03-17T18:02:42.356Z,9.77
2023-03-17T18:06:08.862Z,11.02
2023-03-17T18:09:34.669Z,15.73
2023-03-17T18:13:02.070Z,11.50
2023-03-17T18:16:30.496Z,15.00
2023-03-17T18:19:56.503Z,12.73
2023-03-17T18:23:27.490Z,14.43
2023-03-17T18:26:55.504Z,16.12
2023-03-17T18:30:24.139Z,12.50
2023-03-17T18:33:53.802Z,12.53
2023-03-17T18:37:26.928Z,14.18
2023-03-17T18:41:31.193Z,13.02
2023-03-17T18:44:49.001Z,12.07
2023-03-17T18:48:16.329Z,13.18
2023-03-17T18:51:46.638Z,14.80
2023-03-17T18:55:15.014Z,14.50
2023-03-17T18:58:42.634Z,17.45
2023-03-17T19:02:10.011Z,21.45
2023-03-17T19:05:38.626Z,15.10
2023-03-17T19:09:10.220Z,14.53
2023-03-17T19:12:38.410Z,12.80
2023-03-17T19:16:06.719Z,13.43
2023-03-17T19:19:33.824Z,16.00
2023-03-17T19:23:00.765Z,14.52
2023-03-17T19:26:28.387Z,14.30
2023-03-17T19:29:54.670Z,16.00
2023-03-17T19:33:21.455Z,12.85
2023-03-17T19:36:47.915Z,14.27
2023-03-17T19:40:17.639Z,19.65
2023-03-17T19:43:46.191Z,13.87
2023-03-17T19:47:12.681Z,15.93
2023-03-17T19:50:46.714Z,16.70
2023-03-17T19:54:13.886Z,14.57
2023-03-17T19:57:42.489Z,15.10
2023-03-17T20:01:12.669Z,14.73
2023-03-17T20:04:39.327Z,14.32
2023-03-17T20:08:07.902Z,15.10
2023-03-17T20:11:35.673Z,14.82
2023-03-17T20:15:02.908Z,14.48
2023-03-17T20:18:30.691Z,14.33
2023-03-17T20:21:59.213Z,17.67
2023-03-17T20:25:27.163Z,12.02
2023-03-17T20:28:54.823Z,14.73
2023-03-17T20:32:21.370Z,15.68
2023-03-17T20:35:48.793Z,14.93
2023-03-17T20:39:20.953Z,14.23
2023-03-17T20:42:47.756Z,15.82
2023-03-17T20:46:17.042Z,13.68
2023-03-17T20:49:44.185Z,16.02
2023-03-17T20:53:11.994Z,13.07
2023-03-17T20:56:38.487Z,15.15
2023-03-17T21:00:09.283Z,16.58
2023-03-17T21:03:35.642Z,17.05
2023-03-17T21:07:04.923Z,16.55
2023-03-17T21:10:33.423Z,16.13
2023-03-17T21:14:09.785Z,15.48
2023-03-17T21:17:37.383Z,17.65
2023-03-17T21:21:05.324Z,14.50
2023-03-17T21:24:33.070Z,15.52
2023-03-17T21:28:02.972Z,15.00
2023-03-17T21:31:28.134Z,16.05
2023-03-17T21:34:54.862Z,14.63
2023-03-17T21:38:19.987Z,17.05
2023-03-17T21:41:45.784Z,14.85
2023-03-17T21:45:11.918Z,12.80
2023-03-17T21:48:56.847Z,12.10
2023-03-17T21:52:26.961Z,14.73
2023-03-17T21:55:51.665Z,12.13
2023-03-17T21:59:15.928Z,11.05
2023-03-17T22:02:44.196Z,11.50
2023-03-17T22:06:09.316Z,8.65
2023-03-17T22:09:33.219Z,10.02
2023-03-17T22:12:57.790Z,8.70
2023-03-17T22:16:22.087Z,8.38
2023-03-17T22:19:49.290Z,9.40
2023-03-17T22:23:13.498Z,14.27
2023-03-17T22:26:38.310Z,10.25
2023-03-17T22:30:02.642Z,8.82
2023-03-17T22:33:26.920Z,10.77
2023-03-17T22:36:52.766Z,10.37
2023-03-17T22:40:17.228Z,7.55
2023-03-17T22:43:42.173Z,12.05
2023-03-17T22:47:07.061Z,13.75
2023-03-17T22:50:31.516Z,10.88
2023-03-17T22:53:57.529Z,9.50
2023-03-17T22:57:21.951Z,13.45
2023-03-17T23:00:49.083Z,11.20
2023-03-17T23:04:14.052Z,10.65
2023-03-17T23:07:49.493Z,9.63
2023-03-17T23:11:17.964Z,11.50
2023-03-17T23:14:44.265Z,12.10
2023-03-17T23:18:08.389Z,11.63
2023-03-17T23:21:33.907Z,11.00
2023-03-17T23:24:58.108Z,11.80
2023-03-17T23:28:24.631Z,7.40
2023-03-17T23:31:49.186Z,8.90
2023-03-17T23:35:14.868Z,8.82
2023-03-17T23:38:39.032Z,8.00
2023-03-17T23:42:04.543Z,9.13
2023-03-17T23:45:30.203Z,10.27
2023-03-17T23:48:54.357Z,12.05
2023-03-17T23:52:18.257Z,11.70
2023-03-17T23:55:42.941Z,8.15
2023-03-17T23:59:08.593Z,10.38
